Time;durP1;ratioP1;P1;durP2;ratioP2;P2;SDS_P1;SDS_P2;PMS_P1;PMS_P2;Temp;Humidity;BMP_temperature;BMP_pressure;BME280_temperature;BME280_humidity;BME280_pressure;Samples;Min_cycle;Max_cycle;Signal;HPM_P1;HPM_P2
2022/09/22 00:00:42;;;;;;;11.95;8.10;;;11.40;70.00;;;;;;5075825;28;20029;-71
2022/09/22 00:03:08;;;;;;;10.65;7.40;;;11.40;70.00;;;;;;5075811;28;20017;-71
2022/09/22 00:05:33;;;;;;;12.32;7.28;;;11.40;69.90;;;;;;5075638;28;20027;-71
2022/09/22 00:08:00;;;;;;;11.23;6.75;;;11.40;69.80;;;;;;5075663;28;20029;-71
2022/09/22 00:10:27;;;;;;;11.57;6.70;;;11.40;69.90;;;;;;5075374;28;20048;-71
2022/09/22 00:12:54;;;;;;;10.27;6.93;;;11.40;69.60;;;;;;5075590;28;20044;-70
2022/09/22 00:15:20;;;;;;;11.80;7.18;;;11.40;69.60;;;;;;5075549;28;20053;-71
2022/09/22 00:17:46;;;;;;;10.73;6.40;;;11.30;69.30;;;;;;5075532;28;20035;-70
2022/09/22 00:20:12;;;;;;;11.30;6.30;;;11.30;69.50;;;;;;5075466;28;20033;-71
2022/09/22 00:22:39;;;;;;;8.80;6.13;;;11.30;69.60;;;;;;5074240;28;20029;-71
2022/09/22 00:25:06;;;;;;;10.48;6.40;;;11.20;69.60;;;;;;5075304;28;20052;-71
2022/09/22 00:27:32;;;;;;;10.27;6.47;;;11.10;69.70;;;;;;5075299;28;20025;-71
2022/09/22 00:29:57;;;;;;;11.27;6.40;;;11.10;70.10;;;;;;5075177;28;20025;-71
2022/09/22 00:32:23;;;;;;;9.20;6.70;;;11.10;70.10;;;;;;5075198;28;20025;-70
2022/09/22 00:34:49;;;;;;;10.13;6.65;;;11.20;70.00;;;;;;5075164;28;20049;-71
2022/09/22 00:37:14;;;;;;;11.90;6.28;;;11.20;69.80;;;;;;5075149;28;20063;-71
2022/09/22 00:39:40;;;;;;;9.38;6.07;;;11.00;70.50;;;;;;5075092;28;20033;-71
2022/09/22 00:42:06;;;;;;;11.60;6.57;;;11.00;70.80;;;;;;5075043;28;20033;-71
2022/09/22 00:44:42;;;;;;;9.35;6.50;;;11.10;70.60;;;;;;5074928;28;20039;-71
2022/09/22 00:47:35;;;;;;;10.75;5.90;;;11.20;70.40;;;;;;5074989;28;20024;-70
2022/09/22 00:50:07;;;;;;;;;;;11.20;70.10;;;;;;5074413;28;20021;-71
2022/09/22 00:52:54;;;;;;;9.27;5.85;;;11.00;70.60;;;;;;5075007;28;19955;-71
2022/09/22 00:55:22;;;;;;;7.93;6.10;;;10.90;71.00;;;;;;5074840;28;20084;-71
2022/09/22 00:57:49;;;;;;;7.78;5.97;;;10.90;71.10;;;;;;5074742;28;20033;-71
2022/09/22 01:00:15;;;;;;;8.73;5.90;;;10.90;71.00;;;;;;5074710;28;20036;-71
2022/09/22 01:02:42;;;;;;;9.18;6.38;;;10.80;71.30;;;;;;5073623;28;20025;-71
2022/09/22 01:05:08;;;;;;;8.50;5.68;;;10.80;71.20;;;;;;5074538;28;20028;-70
2022/09/22 01:07:35;;;;;;;8.63;6.18;;;10.80;70.90;;;;;;5074672;28;20033;-71
2022/09/22 01:10:01;;;;;;;8.23;6.13;;;10.90;70.70;;;;;;5074355;28;20068;-71
2022/09/22 01:12:29;;;;;;;8.98;6.32;;;11.00;70.70;;;;;;5074508;28;20025;-71
2022/09/22 01:15:14;;;;;;;8.70;6.40;;;11.00;70.50;;;;;;5074417;28;20451;-71
2022/09/22 01:17:55;;;;;;;14.23;6.35;;;10.90;70.60;;;;;;5074535;28;20029;-71
2022/09/22 01:20:26;;;;;;;8.88;5.90;;;11.00;70.70;;;;;;5074487;28;20054;-72
2022/09/22 01:23:24;;;;;;;8.30;5.80;;;11.00;70.40;;;;;;5074256;28;20028;-71
2022/09/22 01:26:01;;;;;;;9.40;5.68;;;11.00;70.50;;;;;;5074335;28;20044;-71
2022/09/22 01:28:45;;;;;;;7.90;5.82;;;11.00;70.60;;;;;;5073482;28;20028;-71
2022/09/22 01:31:33;;;;;;;8.63;5.28;;;10.90;70.60;;;;;;5074068;28;20021;-70
2022/09/22 01:34:34;;;;;;;8.05;5.93;;;10.90;70.90;;;;;;5073048;28;20021;-71
2022/09/22 01:37:26;;;;;;;9.23;5.22;;;10.90;71.10;;;;;;5052206;28;20022;-70
2022/09/22 01:40:07;;;;;;;8.57;5.57;;;10.80;71.20;;;;;;5066715;28;20033;-71
2022/09/22 01:43:00;;;;;;;7.45;5.18;;;10.70;71.20;;;;;;5074051;28;20023;-71
2022/09/22 01:45:28;;;;;;;7.47;5.07;;;10.70;71.20;;;;;;5073958;28;20025;-71
2022/09/22 01:48:07;;;;;;;7.40;4.95;;;10.70;71.10;;;;;;5072845;28;20017;-71
2022/09/22 01:50:41;;;;;;;7.53;5.25;;;10.70;71.60;;;;;;5073825;28;20025;-70
2022/09/22 01:53:11;;;;;;;8.07;4.75;;;10.60;71.80;;;;;;5073764;28;20021;-71
2022/09/22 01:55:40;;;;;;;7.30;5.20;;;10.60;71.60;;;;;;5072761;28;20049;-71
2022/09/22 01:58:11;;;;;;;9.13;5.20;;;10.60;71.70;;;;;;5073589;28;20032;-71
2022/09/22 02:00:40;;;;;;;13.02;5.15;;;10.50;71.70;;;;;;5073622;28;20029;-71
2022/09/22 02:03:12;;;;;;;7.63;5.38;;;10.50;72.00;;;;;;5073563;28;20032;-71
2022/09/22 02:05:49;;;;;;;8.93;5.57;;;10.50;72.00;;;;;;5073458;28;20029;-70
2022/09/22 02:08:39;;;;;;;8.35;5.75;;;10.50;71.90;;;;;;5072538;28;20021;-71
2022/09/22 02:11:12;;;;;;;7.32;5.38;;;10.50;71.80;;;;;;5069826;28;20051;-70
2022/09/22 02:13:39;;;;;;;10.07;5.72;;;10.50;71.70;;;;;;5073601;28;20054;-70
2022/09/22 02:16:06;;;;;;;7.72;5.32;;;10.50;71.80;;;;;;5073361;28;20096;-71
2022/09/22 02:18:39;;;;;;;7.38;4.72;;;10.40;72.10;;;;;;5073315;28;20040;-71
2022/09/22 02:21:05;;;;;;;7.28;5.00;;;10.40;72.30;;;;;;5073487;28;20078;-71
2022/09/22 02:23:31;;;;;;;8.27;5.30;;;10.50;72.10;;;;;;5073268;28;20401;-71
2022/09/22 02:26:00;;;;;;;7.57;5.35;;;10.50;71.80;;;;;;5073206;28;20029;-71
2022/09/22 02:28:27;;;;;;;6.60;4.57;;;10.60;71.70;;;;;;5073126;28;20031;-71
2022/09/22 02:30:54;;;;;;;5.82;4.15;;;10.60;71.70;;;;;;5073176;28;20039;-70
2022/09/22 02:33:24;;;;;;;6.47;4.75;;;10.60;71.70;;;;;;5072205;28;20361;-71
2022/09/22 02:36:12;;;;;;;7.07;4.85;;;10.50;72.00;;;;;;5073214;28;20024;-71
2022/09/22 02:38:56;;;;;;;7.32;4.22;;;10.40;72.40;;;;;;5073150;28;20049;-71
2022/09/22 02:41:37;;;;;;;6.05;4.60;;;10.40;72.50;;;;;;5073135;28;20017;-70
2022/09/22 02:44:17;;;;;;;6.38;3.92;;;10.40;72.60;;;;;;5073149;28;20476;-71
2022/09/22 02:46:51;;;;;;;10.60;4.28;;;10.30;72.50;;;;;;5076843;28;20080;-71
2022/09/22 02:49:18;;;;;;;5.47;4.30;;;10.20;72.60;;;;;;5077203;28;20052;-70
2022/09/22 02:51:47;;;;;;;7.53;4.30;;;10.10;73.20;;;;;;5077123;28;20028;-71
2022/09/22 02:54:15;;;;;;;7.63;4.68;;;10.10;73.30;;;;;;5077040;28;20025;-71
2022/09/22 02:56:42;;;;;;;5.55;4.18;;;10.20;72.90;;;;;;5077062;28;20029;-71
2022/09/22 02:59:10;;;;;;;6.78;4.63;;;10.20;72.90;;;;;;5075955;28;20029;-71
2022/09/22 03:01:36;;;;;;;5.88;4.88;;;10.10;72.70;;;;;;5076899;28;20097;-71
2022/09/22 03:04:03;;;;;;;7.85;4.80;;;10.10;72.70;;;;;;5076934;28;20020;-70
2022/09/22 03:06:29;;;;;;;7.72;4.65;;;10.00;72.90;;;;;;5075774;28;20032;-70
2022/09/22 03:08:55;;;;;;;7.03;4.57;;;10.00;73.80;;;;;;5075883;28;20033;-70
2022/09/22 03:11:21;;;;;;;6.50;4.85;;;10.10;72.90;;;;;;5076622;28;20067;-71
2022/09/22 03:13:46;;;;;;;6.93;4.82;;;10.10;72.60;;;;;;5076848;28;20029;-71
2022/09/22 03:16:12;;;;;;;5.80;4.45;;;10.00;73.00;;;;;;5059250;28;20029;-71
2022/09/22 03:18:37;;;;;;;5.82;4.15;;;9.90;73.30;;;;;;5076616;28;20053;-71
2022/09/22 03:21:04;;;;;;;5.28;4.18;;;9.90;73.30;;;;;;5076724;28;20089;-71
2022/09/22 03:23:29;;;;;;;7.53;4.47;;;9.90;73.20;;;;;;5076550;28;20047;-71
2022/09/22 03:25:55;;;;;;;7.38;4.15;;;9.90;73.50;;;;;;5076408;28;20068;-71
2022/09/22 03:28:20;;;;;;;5.90;4.35;;;9.90;73.40;;;;;;5076531;28;20027;-70
2022/09/22 03:30:46;;;;;;;6.15;3.85;;;9.90;74.20;;;;;;5076431;28;20107;-70
2022/09/22 03:33:12;;;;;;;6.13;4.22;;;9.90;73.60;;;;;;5076355;28;20044;-70
2022/09/22 03:35:38;;;;;;;8.90;3.95;;;9.90;73.50;;;;;;5076311;28;20033;-70
2022/09/22 03:38:04;;;;;;;7.70;4.30;;;9.90;73.50;;;;;;5076301;28;20027;-71
2022/09/22 03:40:30;;;;;;;10.10;4.80;;;10.00;73.20;;;;;;5076233;28;20036;-71
2022/09/22 03:42:55;;;;;;;7.65;4.10;;;10.00;73.00;;;;;;5075187;28;20028;-70
2022/09/22 03:45:21;;;;;;;7.28;4.80;;;9.90;73.10;;;;;;5076066;28;20033;-70
2022/09/22 03:47:47;;;;;;;5.97;4.18;;;9.80;73.30;;;;;;5076091;28;20017;-71
2022/09/22 03:50:13;;;;;;;6.70;4.25;;;9.70;73.60;;;;;;5076048;28;20025;-70
2022/09/22 03:52:41;;;;;;;6.53;4.55;;;9.60;73.90;;;;;;5076012;28;20017;-71
2022/09/22 03:55:08;;;;;;;7.57;4.65;;;9.70;74.10;;;;;;5076075;28;20025;-71
2022/09/22 03:57:35;;;;;;;7.88;4.97;;;9.70;74.00;;;;;;5075730;28;20021;-71
2022/09/22 04:00:02;;;;;;;7.65;4.53;;;9.60;73.90;;;;;;5075903;28;20083;-71
2022/09/22 04:02:28;;;;;;;7.20;4.78;;;9.70;73.70;;;;;;5075935;28;20036;-70
2022/09/22 04:04:53;;;;;;;7.78;3.60;;;9.80;73.40;;;;;;5075697;28;20029;-70
2022/09/22 04:07:20;;;;;;;5.88;3.92;;;9.70;73.50;;;;;;5075732;28;20040;-71
2022/09/22 04:09:45;;;;;;;5.72;3.72;;;9.70;73.80;;;;;;5074587;28;20514;-71
2022/09/22 04:12:11;;;;;;;5.22;3.40;;;9.80;73.70;;;;;;5075620;28;20055;-71
2022/09/22 04:14:36;;;;;;;4.35;3.25;;;9.80;73.40;;;;;;5075557;28;20021;-71
2022/09/22 04:17:02;;;;;;;5.10;3.28;;;9.80;73.40;;;;;;5075584;28;20106;-71
2022/09/22 04:19:28;;;;;;;4.95;3.55;;;9.80;73.50;;;;;;5075518;28;20036;-70
2022/09/22 04:21:55;;;;;;;5.05;3.40;;;9.80;73.50;;;;;;5074488;28;20036;-71
2022/09/22 04:24:23;;;;;;;4.97;3.75;;;9.80;73.40;;;;;;5075409;28;20017;-72
2022/09/22 04:26:48;;;;;;;5.38;4.15;;;9.90;73.10;;;;;;5075304;28;20021;-71
2022/09/22 04:29:14;;;;;;;6.80;4.30;;;9.90;73.00;;;;;;5075230;28;20098;-71
2022/09/22 04:31:39;;;;;;;6.93;4.00;;;9.80;73.20;;;;;;5075269;28;20032;-72
2022/09/22 04:34:05;;;;;;;4.93;3.70;;;9.80;73.70;;;;;;5075212;28;20111;-70
2022/09/22 04:36:30;;;;;;;7.38;4.10;;;9.70;73.90;;;;;;5075184;28;20032;-71
2022/09/22 04:38:57;;;;;;;5.68;3.95;;;9.60;74.40;;;;;;5075115;28;20092;-70
2022/09/22 04:41:22;;;;;;;8.95;4.18;;;9.50;74.30;;;;;;5075096;28;20055;-71
2022/09/22 04:43:48;;;;;;;5.95;4.22;;;9.50;74.60;;;;;;5074101;28;20033;-71
2022/09/22 04:46:14;;;;;;;5.07;4.07;;;9.50;74.80;;;;;;5075050;28;20056;-71
2022/09/22 04:48:39;;;;;;;5.30;3.88;;;9.60;74.60;;;;;;5074341;28;20028;-71
2022/09/22 04:51:05;;;;;;;5.47;3.63;;;9.70;74.10;;;;;;5074918;28;20029;-71
2022/09/22 04:53:30;;;;;;;6.38;3.60;;;9.70;73.90;;;;;;5075004;28;20033;-71
2022/09/22 04:55:56;;;;;;;5.57;3.67;;;9.60;73.80;;;;;;5074945;28;20037;-70
2022/09/22 04:58:22;;;;;;;5.07;3.72;;;9.50;74.10;;;;;;5074781;28;20025;-71
2022/09/22 05:00:48;;;;;;;4.22;2.97;;;9.40;74.80;;;;;;5074718;28;20047;-71
2022/09/22 05:03:14;;;;;;;6.80;3.42;;;9.30;75.00;;;;;;5074629;28;20043;-71
2022/09/22 05:05:39;;;;;;;5.50;3.75;;;9.30;75.10;;;;;;5073647;28;20053;-71
2022/09/22 05:08:06;;;;;;;4.82;3.67;;;9.20;75.50;;;;;;5074074;28;20025;-70
2022/09/22 05:10:33;;;;;;;5.47;4.38;;;9.20;75.60;;;;;;5074361;28;20052;-71
2022/09/22 05:12:58;;;;;;;5.65;4.28;;;9.30;75.40;;;;;;5074512;28;20073;-71
2022/09/22 05:15:24;;;;;;;6.63;3.80;;;9.30;75.10;;;;;;5074449;28;20037;-71
2022/09/22 05:17:52;;;;;;;10.10;4.75;;;9.40;74.90;;;;;;5074401;28;20094;-70
2022/09/22 05:20:20;;;;;;;6.50;4.55;;;9.40;74.70;;;;;;5074362;28;20032;-70
2022/09/22 05:22:46;;;;;;;6.25;4.57;;;9.40;74.90;;;;;;5074222;28;20057;-71
2022/09/22 05:25:14;;;;;;;5.93;3.65;;;9.40;74.80;;;;;;5074167;28;20025;-71
2022/09/22 05:27:48;;;;;;;5.30;3.65;;;9.50;74.40;;;;;;5074210;28;20027;-71
2022/09/22 05:30:14;;;;;;;6.50;4.15;;;9.60;74.30;;;;;;5074085;28;20040;-71
2022/09/22 05:32:44;;;;;;;6.15;4.03;;;9.60;73.90;;;;;;5074208;28;20029;-71
2022/09/22 05:35:14;;;;;;;5.90;4.10;;;9.60;73.70;;;;;;5073169;28;20043;-70
2022/09/22 05:37:45;;;;;;;6.25;4.00;;;9.60;73.80;;;;;;5074026;28;20048;-71
2022/09/22 05:40:12;;;;;;;5.72;3.90;;;9.60;74.00;;;;;;5074027;28;20025;-70
2022/09/22 05:42:46;;;;;;;5.35;3.33;;;9.40;74.20;;;;;;5073832;28;20025;-70
2022/09/22 05:45:12;;;;;;;5.60;3.30;;;9.40;74.60;;;;;;5073735;28;20032;-71
2022/09/22 05:47:39;;;;;;;5.70;4.05;;;9.40;74.50;;;;;;5073836;28;20021;-70
2022/09/22 05:50:06;;;;;;;5.85;4.25;;;9.50;74.50;;;;;;5073793;28;20041;-71
2022/09/22 05:52:31;;;;;;;6.93;3.88;;;9.40;74.60;;;;;;5073726;28;20025;-71
2022/09/22 05:54:58;;;;;;;6.75;4.22;;;9.40;74.70;;;;;;5073864;28;20028;-70
2022/09/22 05:57:26;;;;;;;4.72;3.88;;;9.40;74.90;;;;;;5073623;28;20061;-71
2022/09/22 05:59:53;;;;;;;5.93;4.03;;;9.40;75.00;;;;;;5073765;28;20055;-71
2022/09/22 06:02:19;;;;;;;4.55;3.72;;;9.40;75.10;;;;;;5073609;28;20467;-71
2022/09/22 06:04:44;;;;;;;5.22;3.28;;;9.40;75.30;;;;;;5073517;28;20052;-71
2022/09/22 06:07:10;;;;;;;4.40;3.42;;;9.50;75.30;;;;;;5072637;28;20021;-70
2022/09/22 06:09:36;;;;;;;7.20;4.22;;;9.50;75.50;;;;;;5073279;28;20072;-71
2022/09/22 06:12:01;;;;;;;7.38;4.68;;;9.50;75.60;;;;;;5073410;28;20025;-71
2022/09/22 06:14:27;;;;;;;9.75;5.50;;;9.60;75.80;;;;;;5073372;28;20021;-71
2022/09/22 06:16:54;;;;;;;8.07;5.60;;;9.60;75.90;;;;;;5072464;28;20044;-71
2022/09/22 06:19:22;;;;;;;9.98;4.95;;;9.50;76.20;;;;;;5072581;28;20028;-71
2022/09/22 06:21:49;;;;;;;7.70;4.85;;;9.60;76.50;;;;;;5072328;28;20032;-70
2022/09/22 06:24:14;;;;;;;9.80;5.68;;;9.60;76.50;;;;;;5073264;28;20033;-70
2022/09/22 06:26:40;;;;;;;9.15;5.90;;;9.70;76.50;;;;;;5072199;28;20051;-70
2022/09/22 06:29:07;;;;;;;11.43;6.15;;;9.70;76.60;;;;;;5073175;28;20031;-71
2022/09/22 06:31:32;;;;;;;11.40;7.03;;;9.70;77.00;;;;;;5072329;28;20017;-71
2022/09/22 06:33:58;;;;;;;11.20;7.22;;;9.80;77.20;;;;;;5073318;28;20029;-71
2022/09/22 06:36:30;;;;;;;14.70;8.02;;;9.80;77.50;;;;;;5073137;28;20044;-71
2022/09/22 06:38:59;;;;;;;13.65;8.27;;;9.80;77.60;;;;;;5073310;28;20028;-71
2022/09/22 06:41:26;;;;;;;12.90;7.45;;;9.90;77.70;;;;;;5073063;28;20029;-71
2022/09/22 06:43:54;;;;;;;12.65;8.48;;;9.90;77.90;;;;;;5073087;28;20052;-71
2022/09/22 06:46:25;;;;;;;17.92;9.52;;;9.90;78.60;;;;;;5072987;28;20032;-70
2022/09/22 06:48:56;;;;;;;14.18;9.57;;;10.00;78.40;;;;;;5073102;28;20035;-71
2022/09/22 06:51:27;;;;;;;33.58;9.52;;;10.00;78.70;;;;;;5073117;28;20037;-71
2022/09/22 06:53:53;;;;;;;16.02;9.88;;;10.00;78.50;;;;;;5073201;28;20021;-71
2022/09/22 06:56:24;;;;;;;13.70;9.68;;;10.10;78.60;;;;;;5072941;28;20032;-71
2022/09/22 06:58:55;;;;;;;19.05;10.00;;;10.10;78.50;;;;;;5073174;28;20084;-71
2022/09/22 07:01:22;;;;;;;19.02;10.73;;;10.20;78.60;;;;;;5073118;28;20040;-71
2022/09/22 07:03:48;;;;;;;16.80;11.23;;;10.30;79.00;;;;;;5073023;28;20024;-71
2022/09/22 07:06:17;;;;;;;17.15;11.23;;;10.30;79.80;;;;;;5072815;28;20029;-70
2022/09/22 07:08:44;;;;;;;19.58;11.40;;;10.30;79.80;;;;;;5072883;28;20052;-71
2022/09/22 07:11:10;;;;;;;15.05;10.90;;;10.40;79.40;;;;;;5072633;28;20056;-71
2022/09/22 07:13:40;;;;;;;17.33;11.63;;;10.50;79.40;;;;;;5072779;28;20033;-71
2022/09/22 07:16:09;;;;;;;18.52;11.52;;;10.60;79.20;;;;;;5072789;28;20159;-71
2022/09/22 07:18:39;;;;;;;19.77;11.50;;;10.70;79.10;;;;;;5072735;28;20082;-71
2022/09/22 07:21:07;;;;;;;17.40;11.57;;;10.80;79.10;;;;;;5072740;28;20049;-71
2022/09/22 07:23:34;;;;;;;18.58;10.80;;;10.90;79.20;;;;;;5072699;28;20021;-71
2022/09/22 07:26:04;;;;;;;17.75;11.23;;;10.90;79.50;;;;;;5072593;28;20025;-71
2022/09/22 07:28:32;;;;;;;23.27;11.63;;;11.00;79.60;;;;;;5072640;28;20021;-71
2022/09/22 07:31:04;;;;;;;18.60;11.55;;;11.10;79.40;;;;;;5073389;28;20104;-71
2022/09/22 07:33:34;;;;;;;;;;;11.20;79.50;;;;;;5076837;28;20093;-71
2022/09/22 07:36:09;;;;;;;15.95;10.80;;;11.30;79.20;;;;;;5076361;28;19927;-71
2022/09/22 07:38:39;;;;;;;18.13;10.88;;;11.30;79.10;;;;;;5076462;28;20108;-71
2022/09/22 07:41:08;;;;;;;18.70;10.93;;;11.40;79.00;;;;;;5076278;28;20025;-71
2022/09/22 07:43:34;;;;;;;17.50;11.10;;;11.50;78.90;;;;;;5076205;28;20051;-71
2022/09/22 07:46:00;;;;;;;17.15;10.93;;;11.60;78.80;;;;;;5076109;28;20111;-71
2022/09/22 07:48:37;;;;;;;19.42;11.85;;;11.60;79.20;;;;;;5076110;28;20029;-71
2022/09/22 07:51:03;;;;;;;19.75;12.23;;;11.70;78.80;;;;;;5075132;28;20111;-71
2022/09/22 07:53:30;;;;;;;18.42;12.55;;;11.80;79.30;;;;;;5076041;28;20013;-71
2022/09/22 07:56:01;;;;;;;20.35;12.27;;;11.90;80.20;;;;;;5075061;28;20032;-71
2022/09/22 07:58:27;;;;;;;23.52;12.02;;;11.90;79.50;;;;;;5075077;28;20092;-71
2022/09/22 08:00:52;;;;;;;19.73;11.32;;;12.00;80.00;;;;;;5075870;28;20040;-70
2022/09/22 08:03:18;;;;;;;20.10;12.75;;;12.00;79.00;;;;;;5075832;28;20029;-71
2022/09/22 08:05:45;;;;;;;19.27;11.88;;;12.10;78.80;;;;;;5075700;28;20025;-71
2022/09/22 08:08:11;;;;;;;19.20;11.82;;;12.20;78.80;;;;;;5075719;28;20019;-71
2022/09/22 08:10:37;;;;;;;18.30;11.93;;;12.30;78.60;;;;;;5075511;28;20060;-71
2022/09/22 08:13:03;;;;;;;21.88;11.35;;;12.40;78.50;;;;;;5075641;28;20018;-70
2022/09/22 08:15:29;;;;;;;22.67;12.70;;;12.50;78.10;;;;;;5075631;28;20024;-71
2022/09/22 08:17:56;;;;;;;17.52;12.45;;;12.60;78.30;;;;;;5075581;28;20100;-71
2022/09/22 08:20:24;;;;;;;19.98;12.70;;;12.70;78.30;;;;;;5075520;28;20089;-71
2022/09/22 08:22:56;;;;;;;19.77;12.10;;;12.70;77.90;;;;;;5075469;28;20032;-71
2022/09/22 08:25:24;;;;;;;19.45;12.05;;;12.80;77.90;;;;;;5074406;28;20505;-71
2022/09/22 08:27:50;;;;;;;20.17;13.10;;;12.90;77.30;;;;;;5075368;28;20021;-71
2022/09/22 08:30:16;;;;;;;22.95;13.80;;;13.00;77.50;;;;;;5075233;28;20017;-71
2022/09/22 08:32:41;;;;;;;21.73;12.65;;;13.10;77.40;;;;;;5074384;28;20017;-71
2022/09/22 08:35:07;;;;;;;24.33;13.52;;;13.20;76.60;;;;;;5074284;28;20028;-71
2022/09/22 08:37:34;;;;;;;17.80;11.45;;;13.30;76.90;;;;;;5075334;28;20017;-71
2022/09/22 08:40:00;;;;;;;22.30;12.25;;;13.40;76.40;;;;;;5075156;28;20044;-71
2022/09/22 08:42:27;;;;;;;20.77;12.20;;;13.40;76.10;;;;;;5074208;28;20029;-71
2022/09/22 08:45:05;;;;;;;17.55;12.30;;;13.50;75.40;;;;;;5073932;28;20025;-71
2022/09/22 08:53:22;;;;;;;21.30;12.50;;;13.80;75.90;;;;;;5074983;28;20097;-71
2022/09/22 08:55:56;;;;;;;17.23;11.18;;;13.90;75.70;;;;;;5074919;28;20040;-71
2022/09/22 08:58:36;;;;;;;19.67;11.82;;;14.00;75.30;;;;;;5074853;28;20055;-71
2022/09/22 09:01:47;;;;;;;18.80;11.48;;;14.10;74.90;;;;;;5074808;28;20029;-71
2022/09/22 09:04:22;;;;;;;17.83;11.10;;;14.20;73.50;;;;;;5073485;28;20096;-71
2022/09/22 09:07:42;;;;;;;16.80;10.70;;;14.30;73.40;;;;;;5074595;28;20040;-71
2022/09/22 09:10:12;;;;;;;16.25;10.05;;;14.40;74.00;;;;;;5069827;28;20041;-71
2022/09/22 09:13:15;;;;;;;15.40;9.38;;;14.50;73.10;;;;;;5074802;28;20044;-71
2022/09/22 09:16:12;;;;;;;14.57;9.30;;;14.70;70.90;;;;;;5073497;28;20025;-71
2022/09/22 09:18:43;;;;;;;13.07;8.65;;;14.80;71.70;;;;;;5074377;28;20024;-71
2022/09/22 09:21:13;;;;;;;14.83;8.20;;;15.00;70.60;;;;;;5074585;28;20088;-72
2022/09/22 09:23:45;;;;;;;13.32;8.63;;;15.10;70.00;;;;;;5074335;28;20084;-72
2022/09/22 09:26:13;;;;;;;13.10;8.13;;;15.20;69.70;;;;;;5074265;28;20028;-72
2022/09/22 09:28:44;;;;;;;15.65;9.07;;;15.30;70.00;;;;;;5074174;28;20081;-72
2022/09/22 09:31:30;;;;;;;16.90;9.10;;;15.40;70.30;;;;;;5074207;28;20024;-72
2022/09/22 09:34:02;;;;;;;16.42;9.52;;;15.50;68.40;;;;;;5074082;28;20070;-71
2022/09/22 09:36:36;;;;;;;13.20;8.60;;;15.60;69.50;;;;;;5074221;28;20025;-72
2022/09/22 09:39:12;;;;;;;11.48;8.75;;;15.70;68.90;;;;;;5074099;28;20024;-71
2022/09/22 09:41:39;;;;;;;13.48;9.00;;;15.90;68.70;;;;;;5074021;28;20021;-71
2022/09/22 09:44:05;;;;;;;10.32;7.45;;;16.00;68.10;;;;;;5072932;28;20073;-71
2022/09/22 09:46:37;;;;;;;11.20;7.30;;;16.10;68.20;;;;;;5073795;28;20025;-72
2022/09/22 09:49:25;;;;;;;11.03;7.03;;;16.20;67.50;;;;;;5074043;28;20021;-72
2022/09/22 09:51:54;;;;;;;10.55;7.15;;;16.40;67.30;;;;;;5072894;28;20040;-72
2022/09/22 09:54:19;;;;;;;11.23;6.68;;;16.60;66.40;;;;;;5073545;28;20028;-71
2022/09/22 09:57:13;;;;;;;10.15;6.68;;;16.60;65.80;;;;;;5072761;28;20037;-71
2022/09/22 10:02:37;;;;;;;9.77;6.80;;;16.70;66.40;;;;;;5073637;28;20036;-71
2022/09/22 10:05:18;;;;;;;11.90;7.10;;;16.80;63.50;;;;;;5073558;28;20468;-71
2022/09/22 10:07:59;;;;;;;11.05;7.07;;;16.90;64.10;;;;;;5073660;28;20021;-71
2022/09/22 10:10:28;;;;;;;11.48;7.15;;;16.90;62.80;;;;;;5073349;28;20058;-72
2022/09/22 10:13:14;;;;;;;6.43;5.38;;;17.10;64.50;;;;;;5073457;28;20048;-71
2022/09/22 10:15:41;;;;;;;8.27;5.18;;;17.20;63.90;;;;;;5073500;28;20419;-71
2022/09/22 10:18:25;;;;;;;9.48;6.25;;;17.40;63.30;;;;;;5073515;28;20056;-72
2022/09/22 10:21:03;;;;;;;9.98;5.70;;;17.50;62.50;;;;;;5073373;28;20043;-72
2022/09/22 10:23:31;;;;;;;8.02;5.32;;;17.50;62.60;;;;;;5073306;28;20021;-72
2022/09/22 10:26:20;;;;;;;7.75;5.15;;;17.60;60.30;;;;;;5073195;28;20013;-72
2022/09/22 10:29:06;;;;;;;7.97;5.20;;;17.70;61.10;;;;;;5073341;28;20029;-71
2022/09/22 10:31:32;;;;;;;5.75;4.50;;;17.80;60.00;;;;;;5073297;28;20043;-72
2022/09/22 10:33:59;;;;;;;5.95;3.83;;;17.80;59.90;;;;;;5073186;28;20028;-71
2022/09/22 10:36:28;;;;;;;5.57;4.00;;;17.90;59.50;;;;;;5073171;28;20021;-71
2022/09/22 10:38:55;;;;;;;6.47;4.50;;;18.00;57.30;;;;;;5073166;28;20050;-71
2022/09/22 10:41:26;;;;;;;6.32;4.00;;;18.00;58.00;;;;;;5073119;28;20025;-71
2022/09/22 10:44:24;;;;;;;6.60;3.70;;;18.00;57.50;;;;;;5073145;28;20025;-71
2022/09/22 10:46:50;;;;;;;4.07;3.30;;;18.10;56.60;;;;;;5068929;28;20071;-71
2022/09/22 10:49:39;;;;;;;7.70;4.40;;;18.20;55.90;;;;;;5072068;28;20048;-72
2022/09/22 10:52:05;;;;;;;5.00;3.33;;;18.20;56.70;;;;;;5073058;28;20028;-72
2022/09/22 10:55:02;;;;;;;5.38;3.72;;;18.30;55.90;;;;;;5072994;28;20036;-72
2022/09/22 10:58:09;;;;;;;5.15;3.10;;;18.40;54.60;;;;;;5073034;28;20080;-71
2022/09/22 11:00:37;;;;;;;6.80;2.88;;;18.50;56.10;;;;;;5051140;28;20053;-71
2022/09/22 11:03:40;;;;;;;3.88;2.88;;;18.40;54.40;;;;;;5068722;28;20033;-72
2022/09/22 11:12:24;;;;;;;5.78;3.55;;;18.10;57.00;;;;;;5077023;28;20047;-72
2022/09/22 11:15:07;;;;;;;3.00;2.05;;;18.20;55.80;;;;;;5076833;28;20021;-71
2022/09/22 11:18:10;;;;;;;2.90;1.90;;;18.20;53.30;;;;;;5076753;28;20029;-71
2022/09/22 11:20:37;;;;;;;3.28;2.38;;;18.10;53.40;;;;;;5075691;28;20036;-71
2022/09/22 11:23:30;;;;;;;2.60;2.17;;;18.00;54.40;;;;;;5076630;28;20048;-72
2022/09/22 11:26:04;;;;;;;4.53;2.53;;;17.90;54.70;;;;;;5076642;28;20035;-71
2022/09/22 11:28:57;;;;;;;4.38;3.00;;;18.00;55.40;;;;;;5076479;28;20017;-71
2022/09/22 11:31:45;;;;;;;6.90;3.80;;;18.10;56.40;;;;;;5076551;28;20029;-71
2022/09/22 11:34:36;;;;;;;5.35;2.90;;;18.20;52.50;;;;;;5075448;28;20025;-71
2022/09/22 11:37:24;;;;;;;6.22;2.83;;;18.00;52.90;;;;;;5076429;28;20078;-71
2022/09/22 11:40:03;;;;;;;3.72;2.38;;;18.00;54.00;;;;;;5076108;28;20033;-72
2022/09/22 11:42:35;;;;;;;4.63;2.70;;;18.00;54.00;;;;;;5076430;28;20032;-72
2022/09/22 11:45:27;;;;;;;6.25;3.03;;;18.00;54.60;;;;;;5076197;28;20028;-72
2022/09/22 11:48:01;;;;;;;4.88;2.78;;;18.00;54.00;;;;;;5076227;28;20013;-71
2022/09/22 11:50:45;;;;;;;5.53;3.20;;;18.00;54.10;;;;;;5076228;28;20052;-72
2022/09/22 11:53:31;;;;;;;6.45;2.72;;;18.10;53.70;;;;;;5076245;28;20025;-72
2022/09/22 11:56:21;;;;;;;5.05;2.88;;;18.30;54.10;;;;;;5076011;28;20054;-71
2022/09/22 11:58:50;;;;;;;4.72;3.00;;;18.40;52.20;;;;;;5076120;28;20155;-72
2022/09/22 12:01:24;;;;;;;5.20;2.80;;;18.40;52.10;;;;;;5075922;28;20379;-72
2022/09/22 12:04:25;;;;;;;6.32;3.13;;;18.40;53.30;;;;;;5075898;28;20027;-72
2022/09/22 12:06:55;;;;;;;5.45;3.00;;;18.40;53.20;;;;;;5070980;28;20041;-71
2022/09/22 12:09:48;;;;;;;8.30;3.25;;;18.60;53.90;;;;;;5075507;28;20029;-72
2022/09/22 12:12:18;;;;;;;7.22;2.40;;;18.60;50.00;;;;;;5074706;28;20040;-72
2022/09/22 12:14:50;;;;;;;3.90;2.20;;;18.60;52.40;;;;;;5075716;28;20029;-72
2022/09/22 12:17:39;;;;;;;4.53;2.33;;;18.60;52.50;;;;;;5075629;28;20045;-72
2022/09/22 12:20:21;;;;;;;3.70;2.75;;;18.50;52.40;;;;;;5075599;28;20021;-72
2022/09/22 12:23:10;;;;;;;4.53;2.67;;;18.50;52.70;;;;;;5075548;28;20028;-72
2022/09/22 12:25:54;;;;;;;4.53;2.85;;;18.40;53.50;;;;;;5074364;28;20088;-72
2022/09/22 12:28:29;;;;;;;4.68;2.85;;;18.50;53.90;;;;;;5075392;28;20017;-72
2022/09/22 12:31:05;;;;;;;4.03;2.50;;;18.60;53.40;;;;;;5075388;28;20020;-72
2022/09/22 12:33:36;;;;;;;4.63;2.90;;;18.70;52.70;;;;;;5075410;28;20017;-72
2022/09/22 12:36:03;;;;;;;3.67;2.60;;;18.90;51.50;;;;;;5075255;28;20021;-71
2022/09/22 12:38:30;;;;;;;3.60;2.70;;;19.00;50.90;;;;;;5075246;28;20025;-72
2022/09/22 12:41:01;;;;;;;4.88;2.65;;;19.10;50.90;;;;;;5075171;28;20357;-72
2022/09/22 12:43:27;;;;;;;3.38;2.30;;;19.30;48.80;;;;;;5075146;28;20082;-72
2022/09/22 12:45:54;;;;;;;4.18;2.78;;;19.40;49.00;;;;;;5075143;28;20021;-71
2022/09/22 12:48:27;;;;;;;4.30;2.33;;;19.40;49.10;;;;;;5075039;28;20021;-72
2022/09/22 12:51:28;;;;;;;4.57;2.80;;;19.60;49.10;;;;;;5075063;28;20040;-72
2022/09/22 12:54:21;;;;;;;5.35;2.45;;;19.60;47.70;;;;;;5074935;28;20013;-72
2022/09/22 12:56:57;;;;;;;4.32;2.65;;;19.70;47.70;;;;;;5075018;28;20032;-72
2022/09/22 12:59:35;;;;;;;4.57;2.58;;;19.80;48.20;;;;;;5074890;28;20021;-72
2022/09/22 13:02:16;;;;;;;5.30;2.72;;;19.80;48.20;;;;;;5073632;28;20032;-71
2022/09/22 13:05:03;;;;;;;3.88;2.80;;;19.90;46.50;;;;;;5074688;28;20096;-72
2022/09/22 13:07:39;;;;;;;3.78;2.72;;;20.00;47.60;;;;;;5053473;28;20037;-72
2022/09/22 13:10:26;;;;;;;4.72;3.00;;;20.10;48.10;;;;;;5074432;28;20045;-71
2022/09/22 13:13:01;;;;;;;4.22;2.78;;;20.20;46.50;;;;;;5074546;28;20024;-71
2022/09/22 13:15:49;;;;;;;4.10;2.50;;;20.10;46.60;;;;;;5074492;28;20085;-72
2022/09/22 13:18:38;;;;;;;4.03;2.67;;;20.10;47.10;;;;;;5074373;28;20043;-71
2022/09/22 13:21:13;;;;;;;3.15;2.58;;;20.10;47.10;;;;;;5074384;28;20084;-71
2022/09/22 13:23:51;;;;;;;8.20;2.92;;;20.10;44.80;;;;;;5074307;28;20051;-72
2022/09/22 13:26:31;;;;;;;4.55;2.97;;;20.00;45.50;;;;;;5074199;28;20037;-71